Time;durP1;ratioP1;P1;durP2;ratioP2;P2;SDS_P1;SDS_P2;PMS_P1;PMS_P2;Temp;Humidity;BMP_temperature;BMP_pressure;BME280_temperature;BME280_humidity;BME280_pressure;Samples;Min_cycle;Max_cycle;Signal;HPM_P1;HPM_P2
2023/07/30 00:02:01;;;;;;;15.65;4.97;;;;;;;;;;5054550;28;20029;-62
2023/07/30 00:04:27;;;;;;;13.98;4.43;;;;;;;;;;5055569;28;20024;-62
2023/07/30 00:06:53;;;;;;;17.10;4.78;;;;;;;;;;5056505;28;20036;-62
2023/07/30 00:09:19;;;;;;;17.30;5.25;;;;;;;;;;5055569;28;20085;-62
2023/07/30 00:11:45;;;;;;;14.57;5.45;;;;;;;;;;5053693;28;20029;-62
2023/07/30 00:14:11;;;;;;;15.55;5.45;;;;;;;;;;5055297;28;20032;-62
2023/07/30 00:16:37;;;;;;;16.00;5.20;;;;;;;;;;5055853;28;20036;-62
2023/07/30 00:19:03;;;;;;;14.35;4.80;;;;;;;;;;5056019;28;20055;-62
2023/07/30 00:21:29;;;;;;;13.25;4.88;;;;;;;;;;5054475;28;20028;-62
2023/07/30 00:23:55;;;;;;;15.18;5.10;;;;;;;;;;5054622;28;20032;-62
2023/07/30 00:26:23;;;;;;;17.20;5.72;;;;;;;;;;5055709;28;20036;-63
2023/07/30 00:28:49;;;;;;;13.13;5.63;;;;;;;;;;5056079;28;20036;-63
2023/07/30 00:31:15;;;;;;;19.40;5.25;;;;;;;;;;5053660;28;20047;-62
2023/07/30 00:33:41;;;;;;;14.57;5.20;;;;;;;;;;5054035;28;20593;-62
2023/07/30 00:36:08;;;;;;;16.27;6.15;;;;;;;;;;5037481;28;20552;-62
2023/07/30 00:38:34;;;;;;;14.65;5.60;;;;;;;;;;5037961;28;20047;-62
2023/07/30 00:41:00;;;;;;;16.05;5.68;;;;;;;;;;5055444;28;20033;-62
2023/07/30 00:43:26;;;;;;;16.20;5.65;;;;;;;;;;5055281;28;20045;-62
2023/07/30 00:45:52;;;;;;;17.85;5.82;;;;;;;;;;5035563;28;20047;-62
2023/07/30 00:48:18;;;;;;;15.15;5.90;;;;;;;;;;5053160;28;20555;-62
2023/07/30 00:50:44;;;;;;;14.50;5.93;;;;;;;;;;5054356;28;20765;-62
2023/07/30 00:53:12;;;;;;;13.65;6.20;;;;;;;;;;5055698;28;21117;-62
2023/07/30 00:55:38;;;;;;;16.77;5.95;;;;;;;;;;5055566;28;20629;-63
2023/07/30 00:58:04;;;;;;;19.73;6.43;;;;;;;;;;5055450;28;20307;-62
2023/07/30 01:00:31;;;;;;;19.35;6.50;;;;;;;;;;5055071;28;20700;-63
2023/07/30 01:02:57;;;;;;;15.95;5.72;;;;;;;;;;5054811;28;20043;-62
2023/07/30 01:05:24;;;;;;;15.60;5.35;;;;;;;;;;5053972;28;20063;-62
2023/07/30 01:07:50;;;;;;;18.33;6.18;;;;;;;;;;5055483;28;20045;-63
2023/07/30 01:10:16;;;;;;;16.00;5.95;;;;;;;;;;5055439;28;20040;-62
2023/07/30 01:12:43;;;;;;;20.00;5.82;;;;;;;;;;5054537;28;20033;-62
2023/07/30 01:15:10;;;;;;;17.90;6.03;;;;;;;;;;5053443;28;20399;-63
2023/07/30 01:17:36;;;;;;;18.90;5.85;;;;;;;;;;5054147;28;20039;-62
2023/07/30 01:20:02;;;;;;;15.05;6.07;;;;;;;;;;5051862;28;20036;-62
2023/07/30 01:22:28;;;;;;;13.88;5.22;;;;;;;;;;5052700;28;20028;-62
2023/07/30 01:24:55;;;;;;;14.32;5.20;;;;;;;;;;5054421;28;20121;-67
2023/07/30 01:27:26;;;;;;;18.08;5.53;;;;;;;;;;5053862;28;20024;-68
2023/07/30 01:29:56;;;;;;;17.55;6.18;;;;;;;;;;5036558;28;20077;-67
2023/07/30 01:32:25;;;;;;;14.23;5.25;;;;;;;;;;5054687;28;20133;-67
2023/07/30 01:34:53;;;;;;;13.85;5.70;;;;;;;;;;5053643;28;20017;-67
2023/07/30 01:37:20;;;;;;;14.70;6.47;;;;;;;;;;5054436;28;20049;-67
2023/07/30 01:39:47;;;;;;;17.67;5.60;;;;;;;;;;5054135;28;20036;-67
2023/07/30 01:42:13;;;;;;;16.83;5.72;;;;;;;;;;5052822;28;20036;-67
2023/07/30 01:44:39;;;;;;;17.38;5.40;;;;;;;;;;5056783;28;20024;-67
2023/07/30 01:47:05;;;;;;;22.65;6.35;;;;;;;;;;5057990;28;20167;-67
2023/07/30 01:49:31;;;;;;;19.13;5.57;;;;;;;;;;5057418;28;20044;-67
2023/07/30 01:51:57;;;;;;;18.65;6.15;;;;;;;;;;5057693;28;20032;-67
2023/07/30 01:54:23;;;;;;;13.40;5.40;;;;;;;;;;5057720;28;20081;-67
2023/07/30 01:56:50;;;;;;;16.67;5.82;;;;;;;;;;5058164;28;20078;-67
2023/07/30 01:59:16;;;;;;;23.75;5.72;;;;;;;;;;5058288;28;20028;-67
2023/07/30 02:01:42;;;;;;;16.08;5.15;;;;;;;;;;5058417;28;20752;-67
2023/07/30 02:04:08;;;;;;;18.63;6.25;;;;;;;;;;5058151;28;20036;-67
2023/07/30 02:06:35;;;;;;;16.52;6.18;;;;;;;;;;5058058;28;20571;-67
2023/07/30 02:09:01;;;;;;;18.85;7.05;;;;;;;;;;5057817;28;20032;-67
2023/07/30 02:11:28;;;;;;;18.08;5.05;;;;;;;;;;5058224;28;20029;-68
2023/07/30 02:13:54;;;;;;;18.08;5.60;;;;;;;;;;5056816;28;20497;-67
2023/07/30 02:16:20;;;;;;;17.20;5.93;;;;;;;;;;5022186;28;20661;-67
2023/07/30 02:18:47;;;;;;;20.67;6.40;;;;;;;;;;5040179;28;20042;-67
2023/07/30 02:21:13;;;;;;;14.20;5.03;;;;;;;;;;5055262;28;20480;-67
2023/07/30 02:23:39;;;;;;;19.08;5.80;;;;;;;;;;5038500;28;20044;-67
2023/07/30 02:26:05;;;;;;;20.52;4.65;;;;;;;;;;5058010;28;20123;-62
2023/07/30 02:28:31;;;;;;;20.70;6.60;;;;;;;;;;5042873;28;20060;-62
2023/07/30 02:30:57;;;;;;;16.25;5.45;;;;;;;;;;5057444;28;20036;-62
2023/07/30 02:33:23;;;;;;;17.48;5.97;;;;;;;;;;5057626;28;20036;-63
2023/07/30 02:35:49;;;;;;;22.02;6.38;;;;;;;;;;5057535;28;20028;-62
2023/07/30 02:38:15;;;;;;;15.40;4.68;;;;;;;;;;5055375;28;20032;-62
2023/07/30 02:40:41;;;;;;;19.35;5.43;;;;;;;;;;5056659;28;21761;-62
2023/07/30 02:43:07;;;;;;;17.90;5.30;;;;;;;;;;5057527;28;20430;-62
2023/07/30 02:45:34;;;;;;;19.70;5.90;;;;;;;;;;5058870;28;20031;-62
2023/07/30 02:48:00;;;;;;;16.30;5.57;;;;;;;;;;5056709;28;20063;-62
2023/07/30 02:50:26;;;;;;;18.00;5.93;;;;;;;;;;5056490;28;20048;-62
2023/07/30 02:52:52;;;;;;;16.33;5.45;;;;;;;;;;5057490;28;21904;-62
2023/07/30 02:55:18;;;;;;;17.83;5.45;;;;;;;;;;5054602;28;20507;-63
2023/07/30 02:57:44;;;;;;;19.70;5.82;;;;;;;;;;5057615;28;20590;-62
2023/07/30 03:00:10;;;;;;;13.38;5.15;;;;;;;;;;5055934;28;20039;-62
2023/07/30 03:02:36;;;;;;;18.25;5.03;;;;;;;;;;5056351;28;20040;-62
2023/07/30 03:05:03;;;;;;;20.35;5.75;;;;;;;;;;5055011;28;20116;-62
2023/07/30 03:07:29;;;;;;;19.75;6.05;;;;;;;;;;5054714;28;20045;-62
2023/07/30 03:09:55;;;;;;;18.20;4.93;;;;;;;;;;5056663;28;20031;-62
2023/07/30 03:12:21;;;;;;;19.00;5.93;;;;;;;;;;5055820;28;20039;-62
2023/07/30 03:14:47;;;;;;;13.00;4.53;;;;;;;;;;5056482;28;20036;-62
2023/07/30 03:17:13;;;;;;;21.65;6.30;;;;;;;;;;5057276;28;20510;-62
2023/07/30 03:19:39;;;;;;;20.30;5.05;;;;;;;;;;5056724;28;20491;-62
2023/07/30 03:22:05;;;;;;;19.15;4.70;;;;;;;;;;5056249;28;20502;-62
2023/07/30 03:24:31;;;;;;;18.17;5.22;;;;;;;;;;5056270;28;20032;-62
2023/07/30 03:26:57;;;;;;;19.02;4.82;;;;;;;;;;5054809;28;20055;-62
2023/07/30 03:29:23;;;;;;;19.13;5.38;;;;;;;;;;5057008;28;20041;-62
2023/07/30 03:31:49;;;;;;;16.58;5.20;;;;;;;;;;5056355;28;20037;-62
2023/07/30 03:34:15;;;;;;;20.98;5.45;;;;;;;;;;5054650;28;20024;-62
2023/07/30 03:36:41;;;;;;;17.50;5.03;;;;;;;;;;5056391;28;20615;-62
2023/07/30 03:39:07;;;;;;;18.00;4.60;;;;;;;;;;5055082;28;20062;-62
2023/07/30 03:41:35;;;;;;;16.67;4.80;;;;;;;;;;5054511;28;20032;-62
2023/07/30 03:44:01;;;;;;;15.55;4.75;;;;;;;;;;5056222;28;20035;-62
2023/07/30 03:46:27;;;;;;;17.95;5.22;;;;;;;;;;5038313;28;20028;-62
2023/07/30 03:48:53;;;;;;;17.00;4.65;;;;;;;;;;5057375;28;20111;-62
2023/07/30 03:51:19;;;;;;;20.00;5.53;;;;;;;;;;5055192;28;20956;-62
2023/07/30 03:53:45;;;;;;;21.27;5.57;;;;;;;;;;5054272;28;20107;-62
2023/07/30 03:56:11;;;;;;;18.60;5.70;;;;;;;;;;5035207;28;20109;-62
2023/07/30 03:58:37;;;;;;;19.45;5.28;;;;;;;;;;5035910;28;21128;-62
2023/07/30 04:01:03;;;;;;;20.98;5.45;;;;;;;;;;5053892;28;20047;-62
2023/07/30 04:03:29;;;;;;;18.35;5.03;;;;;;;;;;5053770;28;20081;-62
2023/07/30 04:05:55;;;;;;;16.52;4.30;;;;;;;;;;5053773;28;20040;-62
2023/07/30 04:08:22;;;;;;;18.08;4.43;;;;;;;;;;5053540;28;20029;-62
2023/07/30 04:10:48;;;;;;;21.50;4.97;;;;;;;;;;5055465;28;20027;-62
2023/07/30 04:13:14;;;;;;;14.43;4.50;;;;;;;;;;5055292;28;20031;-62
2023/07/30 04:15:40;;;;;;;22.00;5.95;;;;;;;;;;5042441;28;20567;-62
2023/07/30 04:18:06;;;;;;;19.75;4.82;;;;;;;;;;5055421;28;20368;-67
2023/07/30 04:20:32;;;;;;;18.17;4.78;;;;;;;;;;5055627;28;20510;-67
2023/07/30 04:22:58;;;;;;;17.38;4.88;;;;;;;;;;5054972;28;20040;-67
2023/07/30 04:25:24;;;;;;;20.00;5.25;;;;;;;;;;5054339;28;20840;-67
2023/07/30 04:27:50;;;;;;;16.17;4.15;;;;;;;;;;5056086;28;20066;-67
2023/07/30 04:30:16;;;;;;;21.23;4.72;;;;;;;;;;5056621;28;20040;-67
2023/07/30 04:32:42;;;;;;;16.17;4.07;;;;;;;;;;5054544;28;20078;-67
2023/07/30 04:35:09;;;;;;;16.00;4.45;;;;;;;;;;5055728;28;20036;-67
2023/07/30 04:37:35;;;;;;;14.65;4.05;;;;;;;;;;5054626;28;20040;-67
2023/07/30 04:40:01;;;;;;;18.77;4.25;;;;;;;;;;5054597;28;20036;-67
2023/07/30 04:42:27;;;;;;;19.13;5.53;;;;;;;;;;5055916;28;20020;-67
2023/07/30 04:44:53;;;;;;;21.55;4.60;;;;;;;;;;5056763;28;20040;-67
2023/07/30 04:47:19;;;;;;;17.08;4.20;;;;;;;;;;5055179;28;20044;-67
2023/07/30 04:49:45;;;;;;;14.63;4.38;;;;;;;;;;5055106;28;20687;-67
2023/07/30 04:52:11;;;;;;;13.57;4.05;;;;;;;;;;5055584;28;20434;-67
2023/07/30 04:54:37;;;;;;;17.35;5.18;;;;;;;;;;5054477;28;20024;-67
2023/07/30 04:57:03;;;;;;;17.80;4.95;;;;;;;;;;5057029;28;20326;-67
2023/07/30 04:59:30;;;;;;;18.20;4.18;;;;;;;;;;5036281;28;20461;-67
2023/07/30 05:01:56;;;;;;;19.00;5.50;;;;;;;;;;5053401;28;20128;-67
2023/07/30 05:04:22;;;;;;;17.80;4.00;;;;;;;;;;5056369;28;20033;-67
2023/07/30 05:06:48;;;;;;;13.32;3.90;;;;;;;;;;5055841;28;21680;-67
2023/07/30 05:09:14;;;;;;;16.90;3.97;;;;;;;;;;5055708;28;20881;-67
2023/07/30 05:11:43;;;;;;;11.43;3.22;;;;;;;;;;5056373;28;20476;-67
2023/07/30 05:14:09;;;;;;;19.38;5.03;;;;;;;;;;5055731;28;20036;-67
2023/07/30 05:16:36;;;;;;;15.80;3.20;;;;;;;;;;5055504;28;20077;-67
2023/07/30 05:19:02;;;;;;;23.90;3.85;;;;;;;;;;5054979;28;20106;-67
2023/07/30 05:21:28;;;;;;;14.57;3.42;;;;;;;;;;5059223;28;20032;-67
2023/07/30 05:23:54;;;;;;;16.90;3.97;;;;;;;;;;5058528;28;20055;-67
2023/07/30 05:26:20;;;;;;;16.63;4.25;;;;;;;;;;5043040;28;20102;-67
2023/07/30 05:28:46;;;;;;;13.73;4.00;;;;;;;;;;5056190;28;20037;-67
2023/07/30 05:31:12;;;;;;;16.20;3.90;;;;;;;;;;5059612;28;20656;-67
2023/07/30 05:33:38;;;;;;;16.85;4.72;;;;;;;;;;5059140;28;20253;-67
2023/07/30 05:36:06;;;;;;;20.98;4.30;;;;;;;;;;5060203;28;20028;-67
2023/07/30 05:38:32;;;;;;;14.52;3.83;;;;;;;;;;5058146;28;21005;-67
2023/07/30 05:40:58;;;;;;;14.73;3.78;;;;;;;;;;5055526;28;20047;-67
2023/07/30 05:43:24;;;;;;;13.10;3.70;;;;;;;;;;5056305;28;20028;-67
2023/07/30 05:45:50;;;;;;;15.65;3.42;;;;;;;;;;5057996;28;20024;-67
2023/07/30 05:48:16;;;;;;;15.93;3.58;;;;;;;;;;5056825;28;20059;-67
2023/07/30 05:50:42;;;;;;;12.80;3.38;;;;;;;;;;5038450;28;20424;-67
2023/07/30 05:53:08;;;;;;;15.82;3.72;;;;;;;;;;5057127;28;20051;-67
2023/07/30 05:55:34;;;;;;;12.70;3.40;;;;;;;;;;5059369;28;20032;-67
2023/07/30 05:58:00;;;;;;;13.55;3.30;;;;;;;;;;5056097;28;20047;-67
2023/07/30 06:00:26;;;;;;;13.32;3.35;;;;;;;;;;5057084;28;20040;-67
2023/07/30 06:02:52;;;;;;;16.25;3.45;;;;;;;;;;5054814;28;20436;-67
2023/07/30 06:05:18;;;;;;;15.77;3.47;;;;;;;;;;5055412;28;20526;-67
2023/07/30 06:07:45;;;;;;;15.52;3.15;;;;;;;;;;5055391;28;20037;-67
2023/07/30 06:10:11;;;;;;;24.25;5.35;;;;;;;;;;5051593;28;20172;-67
2023/07/30 06:12:37;;;;;;;15.60;3.80;;;;;;;;;;5057353;28;20652;-67
2023/07/30 06:15:03;;;;;;;13.00;3.38;;;;;;;;;;5057293;28;20577;-67
2023/07/30 06:17:29;;;;;;;16.95;4.13;;;;;;;;;;5057963;28;20491;-67
2023/07/30 06:19:55;;;;;;;12.70;3.17;;;;;;;;;;5058200;28;20086;-67
2023/07/30 06:22:21;;;;;;;14.48;3.33;;;;;;;;;;5055101;28;20106;-67
2023/07/30 06:24:47;;;;;;;11.73;2.95;;;;;;;;;;5057862;28;21813;-67
2023/07/30 06:27:13;;;;;;;10.43;3.13;;;;;;;;;;5055731;28;20776;-67
2023/07/30 06:29:39;;;;;;;10.88;2.55;;;;;;;;;;5056787;28;20020;-67
2023/07/30 06:32:06;;;;;;;13.40;2.97;;;;;;;;;;5056845;28;20034;-67
2023/07/30 06:34:32;;;;;;;10.13;2.50;;;;;;;;;;5057975;28;20039;-67
2023/07/30 06:36:58;;;;;;;12.05;3.00;;;;;;;;;;5057999;28;20463;-67
2023/07/30 06:39:24;;;;;;;10.52;3.10;;;;;;;;;;5056450;28;20047;-67
2023/07/30 06:41:50;;;;;;;13.30;2.60;;;;;;;;;;5057179;28;20671;-67
2023/07/30 06:44:16;;;;;;;11.18;2.75;;;;;;;;;;5057684;28;20081;-67
2023/07/30 06:46:42;;;;;;;16.50;3.17;;;;;;;;;;5058181;28;20067;-67
2023/07/30 06:49:08;;;;;;;14.23;3.55;;;;;;;;;;5055806;28;20044;-67
2023/07/30 06:51:34;;;;;;;11.88;3.15;;;;;;;;;;5057417;28;20044;-67
2023/07/30 06:54:00;;;;;;;18.52;3.63;;;;;;;;;;5057566;28;20040;-67
2023/07/30 06:56:26;;;;;;;10.98;3.00;;;;;;;;;;5057734;28;20681;-67
2023/07/30 06:58:52;;;;;;;12.18;2.88;;;;;;;;;;5054807;28;20055;-67
2023/07/30 07:01:19;;;;;;;9.60;2.85;;;;;;;;;;5054748;28;20134;-67
2023/07/30 07:03:45;;;;;;;13.02;3.00;;;;;;;;;;5058325;28;20032;-67
2023/07/30 07:06:11;;;;;;;13.10;3.30;;;;;;;;;;5057245;28;20024;-67
2023/07/30 07:08:37;;;;;;;9.60;2.95;;;;;;;;;;5056433;28;20060;-67
2023/07/30 07:11:03;;;;;;;16.73;3.20;;;;;;;;;;5056230;28;20566;-67
2023/07/30 07:13:29;;;;;;;12.40;2.80;;;;;;;;;;5052419;28;20290;-67
2023/07/30 07:15:55;;;;;;;10.75;2.90;;;;;;;;;;5056065;28;20028;-67
2023/07/30 07:18:21;;;;;;;11.55;3.58;;;;;;;;;;5055768;28;20059;-67
2023/07/30 07:20:47;;;;;;;13.90;3.20;;;;;;;;;;5053949;28;20028;-67
2023/07/30 07:23:13;;;;;;;13.13;2.88;;;;;;;;;;5054462;28;20238;-67
2023/07/30 07:25:39;;;;;;;8.60;2.50;;;;;;;;;;5054178;28;20729;-67
2023/07/30 07:28:05;;;;;;;13.07;2.50;;;;;;;;;;5056423;28;20528;-67
2023/07/30 07:30:34;;;;;;;11.27;3.30;;;;;;;;;;5056957;28;20043;-67
2023/07/30 07:33:00;;;;;;;12.45;3.30;;;;;;;;;;5056102;28;20513;-67
2023/07/30 07:35:26;;;;;;;11.23;2.45;;;;;;;;;;5055545;28;20675;-67
2023/07/30 07:37:52;;;;;;;16.35;2.40;;;;;;;;;;5055406;28;20107;-67
2023/07/30 07:40:18;;;;;;;16.92;3.00;;;;;;;;;;5055505;28;20068;-67
2023/07/30 07:42:44;;;;;;;14.30;2.85;;;;;;;;;;5053890;28;20044;-67
2023/07/30 07:45:10;;;;;;;9.85;2.35;;;;;;;;;;5057538;28;20028;-67
2023/07/30 07:47:37;;;;;;;11.20;1.90;;;;;;;;;;5056344;28;20044;-68
2023/07/30 07:50:03;;;;;;;9.07;1.95;;;;;;;;;;5056262;28;20032;-67
2023/07/30 07:52:29;;;;;;;10.52;2.38;;;;;;;;;;5056683;28;20048;-67
2023/07/30 07:54:55;;;;;;;8.13;2.00;;;;;;;;;;5055306;28;20524;-67
2023/07/30 07:57:21;;;;;;;11.57;2.35;;;;;;;;;;5054313;28;20052;-68
2023/07/30 07:59:47;;;;;;;11.02;2.33;;;;;;;;;;5053209;28;20067;-67
2023/07/30 08:02:13;;;;;;;9.32;2.20;;;;;;;;;;5053235;28;20044;-68
2023/07/30 08:04:40;;;;;;;11.10;2.65;;;;;;;;;;5038661;28;20050;-67
2023/07/30 08:07:06;;;;;;;7.50;2.05;;;;;;;;;;5053923;28;20130;-67
2023/07/30 08:09:32;;;;;;;8.70;2.28;;;;;;;;;;5054359;28;21073;-67
2023/07/30 08:11:59;;;;;;;10.38;2.05;;;;;;;;;;5048318;28;21511;-67
2023/07/30 08:14:26;;;;;;;13.07;2.75;;;;;;;;;;5057384;28;20574;-67
2023/07/30 08:16:52;;;;;;;9.60;1.98;;;;;;;;;;5056439;28;20057;-67
2023/07/30 08:19:18;;;;;;;11.23;2.85;;;;;;;;;;5055746;28;20071;-67
2023/07/30 08:21:44;;;;;;;16.25;4.05;;;;;;;;;;5057420;28;20033;-67
2023/07/30 08:24:10;;;;;;;13.95;4.07;;;;;;;;;;5054954;28;20033;-68
2023/07/30 08:26:36;;;;;;;11.82;3.10;;;;;;;;;;5053827;28;20032;-67
2023/07/30 08:29:03;;;;;;;10.98;3.10;;;;;;;;;;5052037;28;20551;-67
2023/07/30 08:31:29;;;;;;;10.88;2.67;;;;;;;;;;5053410;28;20032;-67
2023/07/30 08:33:55;;;;;;;12.85;3.00;;;;;;;;;;5053795;28;20114;-67
2023/07/30 08:36:21;;;;;;;7.75;1.90;;;;;;;;;;5055302;28;20111;-67
2023/07/30 08:38:47;;;;;;;9.75;2.08;;;;;;;;;;5053784;28;20086;-67
2023/07/30 08:41:13;;;;;;;8.07;2.13;;;;;;;;;;5054522;28;21735;-67
2023/07/30 08:43:39;;;;;;;8.27;2.22;;;;;;;;;;5055152;28;20036;-67
2023/07/30 08:46:05;;;;;;;7.78;1.80;;;;;;;;;;5056093;28;20032;-68
2023/07/30 08:48:31;;;;;;;11.48;3.08;;;;;;;;;;5055560;28;20040;-67
2023/07/30 08:50:58;;;;;;;11.05;2.03;;;;;;;;;;5053711;28;20482;-67
2023/07/30 08:53:27;;;;;;;7.68;1.80;;;;;;;;;;5056040;28;20044;-67
2023/07/30 08:55:56;;;;;;;9.75;2.38;;;;;;;;;;5058976;28;20116;-67
2023/07/30 08:58:23;;;;;;;10.30;2.00;;;;;;;;;;5059372;28;20440;-67
2023/07/30 09:00:51;;;;;;;9.98;2.28;;;;;;;;;;5059591;28;20943;-67
2023/07/30 09:03:18;;;;;;;9.18;2.15;;;;;;;;;;5057267;28;20116;-67
2023/07/30 09:05:44;;;;;;;12.05;2.22;;;;;;;;;;5051198;28;20036;-67
2023/07/30 09:08:10;;;;;;;9.98;1.90;;;;;;;;;;5055982;28;20098;-68
2023/07/30 09:10:37;;;;;;;8.27;2.08;;;;;;;;;;5058621;28;20063;-67
2023/07/30 09:13:03;;;;;;;12.25;2.30;;;;;;;;;;5059785;28;20032;-67
2023/07/30 09:15:32;;;;;;;9.95;2.28;;;;;;;;;;5057222;28;20032;-68
2023/07/30 09:17:58;;;;;;;9.10;2.13;;;;;;;;;;5059496;28;20519;-67
2023/07/30 09:20:24;;;;;;;8.05;2.35;;;;;;;;;;5057993;28;20040;-67
2023/07/30 09:22:50;;;;;;;9.40;2.17;;;;;;;;;;5057955;28;21973;-67
2023/07/30 09:25:20;;;;;;;13.60;2.42;;;;;;;;;;5059533;28;20056;-67
2023/07/30 09:27:49;;;;;;;10.43;2.20;;;;;;;;;;5044893;28;20074;-67
2023/07/30 09:30:15;;;;;;;10.43;1.83;;;;;;;;;;5047901;28;20108;-67
2023/07/30 09:32:41;;;;;;;7.38;1.75;;;;;;;;;;5046777;28;20064;-66
2023/07/30 09:35:08;;;;;;;9.88;2.17;;;;;;;;;;5047128;28;20748;-66
2023/07/30 09:37:38;;;;;;;4.68;1.40;;;;;;;;;;5047323;28;20372;-66
2023/07/30 09:40:14;;;;;;;6.80;1.42;;;;;;;;;;5047820;28;20127;-66
2023/07/30 09:42:44;;;;;;;6.47;1.30;;;;;;;;;;5048797;28;20039;-67
2023/07/30 09:45:21;;;;;;;4.25;1.00;;;;;;;;;;5047591;28;20040;-68
2023/07/30 09:47:48;;;;;;;5.32;1.23;;;;;;;;;;5043267;28;20064;-67
2023/07/30 09:50:15;;;;;;;6.43;1.52;;;;;;;;;;5046796;28;21862;-67
2023/07/30 09:52:42;;;;;;;4.88;1.23;;;;;;;;;;5045438;28;20040;-67
2023/07/30 09:55:08;;;;;;;7.35;1.40;;;;;;;;;;5045277;28;20419;-67
2023/07/30 09:57:34;;;;;;;8.85;1.85;;;;;;;;;;5050256;28;20031;-67
2023/07/30 10:00:00;;;;;;;8.48;1.98;;;;;;;;;;5055061;28;20024;-67
2023/07/30 10:02:31;;;;;;;5.22;1.17;;;;;;;;;;5055019;28;20043;-67
2023/07/30 10:05:00;;;;;;;6.82;1.58;;;;;;;;;;5055029;28;20089;-66
2023/07/30 10:07:27;;;;;;;8.43;1.73;;;;;;;;;;5055024;28;20037;-67
2023/07/30 10:09:56;;;;;;;9.68;2.22;;;;;;;;;;5058004;28;20487;-66
2023/07/30 10:12:25;;;;;;;9.20;1.95;;;;;;;;;;5048726;28;20041;-67
2023/07/30 10:14:51;;;;;;;7.72;1.45;;;;;;;;;;5057356;28;20105;-66
2023/07/30 10:17:17;;;;;;;6.30;1.55;;;;;;;;;;5054102;28;20965;-66
2023/07/30 10:19:48;;;;;;;8.20;1.63;;;;;;;;;;5055204;28;20068;-67
2023/07/30 10:22:14;;;;;;;7.40;1.70;;;;;;;;;;5053106;28;20158;-66
2023/07/30 10:24:41;;;;;;;7.22;1.98;;;;;;;;;;5053116;28;21045;-67
2023/07/30 10:27:10;;;;;;;10.90;2.22;;;;;;;;;;5056028;28;20040;-66
2023/07/30 10:29:38;;;;;;;8.27;2.05;;;;;;;;;;5055300;28;20528;-66
2023/07/30 10:32:04;;;;;;;8.60;1.70;;;;;;;;;;5054917;28;20078;-66
2023/07/30 10:34:46;;;;;;;12.98;2.08;;;;;;;;;;5054642;28;20527;-67
2023/07/30 10:37:18;;;;;;;8.18;2.00;;;;;;;;;;5056356;28;20778;-67
2023/07/30 10:39:44;;;;;;;16.35;2.70;;;;;;;;;;5057059;28;20368;-66
2023/07/30 10:42:14;;;;;;;9.50;2.30;;;;;;;;;;5053300;28;20102;-66
2023/07/30 10:44:43;;;;;;;11.68;2.88;;;;;;;;;;5053101;28;20086;-67
2023/07/30 10:47:10;;;;;;;6.47;1.60;;;;;;;;;;5054272;28;20028;-67
2023/07/30 10:49:40;;;;;;;9.52;2.17;;;;;;;;;;5054945;28;20021;-66
2023/07/30 10:52:06;;;;;;;10.35;2.50;;;;;;;;;;5049991;28;20036;-67
2023/07/30 10:54:36;;;;;;;10.63;2.10;;;;;;;;;;5053207;28;20131;-67
2023/07/30 10:57:03;;;;;;;9.60;2.45;;;;;;;;;;5037704;28;20038;-67
2023/07/30 10:59:38;;;;;;;10.23;2.25;;;;;;;;;;5052918;28;20032;-67
2023/07/30 11:02:05;;;;;;;11.30;2.35;;;;;;;;;;5054705;28;20024;-67
2023/07/30 11:04:34;;;;;;;14.48;2.70;;;;;;;;;;5057611;28;20043;-67
2023/07/30 11:07:00;;;;;;;8.02;2.05;;;;;;;;;;5057498;28;20570;-67
2023/07/30 11:09:27;;;;;;;8.48;1.95;;;;;;;;;;5056755;28;20318;-67
2023/07/30 11:11:54;;;;;;;9.13;2.03;;;;;;;;;;5057240;28;20074;-67
2023/07/30 11:14:21;;;;;;;9.05;2.30;;;;;;;;;;5058157;28;20142;-67
2023/07/30 11:16:51;;;;;;;8.82;1.60;;;;;;;;;;5038435;28;20024;-67
2023/07/30 11:19:17;;;;;;;11.63;2.45;;;;;;;;;;5056814;28;20077;-67
2023/07/30 11:21:50;;;;;;;11.63;2.83;;;;;;;;;;5058264;28;20023;-68
2023/07/30 11:24:16;;;;;;;13.63;3.20;;;;;;;;;;5057108;28;20042;-67
2023/07/30 11:26:42;;;;;;;8.60;1.88;;;;;;;;;;5058267;28;20032;-67
2023/07/30 11:29:18;;;;;;;8.05;1.55;;;;;;;;;;5058254;28;20036;-67
2023/07/30 11:31:45;;;;;;;9.88;2.20;;;;;;;;;;5057783;28;20031;-67
2023/07/30 11:34:11;;;;;;;10.18;1.67;;;;;;;;;;5058125;28;20028;-67
2023/07/30 11:36:38;;;;;;;7.30;1.67;;;;;;;;;;5039864;28;20500;-67
2023/07/30 11:39:04;;;;;;;10.75;1.92;;;;;;;;;;5039336;28;20055;-67
2023/07/30 11:41:33;;;;;;;8.88;2.53;;;;;;;;;;5058012;28;20028;-67
2023/07/30 11:44:00;;;;;;;9.90;2.28;;;;;;;;;;5057822;28;20599;-67
2023/07/30 11:46:26;;;;;;;10.00;2.33;;;;;;;;;;5057976;28;20032;-69
2023/07/30 11:48:53;;;;;;;14.98;1.92;;;;;;;;;;5057649;28;20036;-67
2023/07/30 11:51:21;;;;;;;12.10;2.50;;;;;;;;;;5057582;28;20028;-68
2023/07/30 11:53:47;;;;;;;8.27;1.70;;;;;;;;;;5057349;28;20040;-67
2023/07/30 11:56:24;;;;;;;10.75;2.22;;;;;;;;;;5042917;28;20035;-67
2023/07/30 11:58:51;;;;;;;10.10;2.03;;;;;;;;;;5057813;28;20051;-68
2023/07/30 12:01:18;;;;;;;11.35;2.40;;;;;;;;;;5056169;28;20037;-67
2023/07/30 12:03:44;;;;;;;9.52;1.83;;;;;;;;;;5039420;28;20180;-67
2023/07/30 12:06:10;;;;;;;9.25;2.17;;;;;;;;;;5056864;28;20043;-67
2023/07/30 12:08:37;;;;;;;12.07;2.13;;;;;;;;;;5057191;28;20032;-67
2023/07/30 12:11:04;;;;;;;9.30;1.65;;;;;;;;;;5057793;28;20043;-67
2023/07/30 12:13:30;;;;;;;9.45;1.60;;;;;;;;;;5056978;28;20044;-67
2023/07/30 12:15:56;;;;;;;11.55;1.83;;;;;;;;;;5056385;28;20284;-67
2023/07/30 12:18:23;;;;;;;7.88;1.63;;;;;;;;;;5056684;28;20695;-67
2023/07/30 12:20:50;;;;;;;11.48;2.00;;;;;;;;;;5037885;28;20025;-67
2023/07/30 12:23:16;;;;;;;10.35;2.38;;;;;;;;;;5056012;28;20081;-67
2023/07/30 12:25:43;;;;;;;8.23;1.63;;;;;;;;;;5056499;28;20052;-67
2023/07/30 12:28:09;;;;;;;7.03;1.67;;;;;;;;;;5056175;28;20028;-67
2023/07/30 12:30:36;;;;;;;6.47;1.40;;;;;;;;;;5055960;28;20029;-67
2023/07/30 12:33:03;;;;;;;6.18;1.60;;;;;;;;;;5056938;28;20031;-67
2023/07/30 12:35:29;;;;;;;10.95;2.30;;;;;;;;;;5056504;28;20812;-67
2023/07/30 12:37:58;;;;;;;8.57;2.00;;;;;;;;;;5055777;28;20032;-67
2023/07/30 12:40:24;;;;;;;8.75;2.13;;;;;;;;;;5055072;28;20038;-67
2023/07/30 12:42:50;;;;;;;8.38;2.33;;;;;;;;;;5055509;28;20035;-67
2023/07/30 12:45:16;;;;;;;7.70;2.00;;;;;;;;;;5056150;28;20058;-67
2023/07/30 12:47:42;;;;;;;8.55;1.83;;;;;;;;;;5056506;28;21786;-68
2023/07/30 12:50:08;;;;;;;8.25;2.28;;;;;;;;;;5055563;28;20043;-67
2023/07/30 12:52:35;;;;;;;8.93;2.08;;;;;;;;;;5056187;28;20155;-67
2023/07/30 12:55:01;;;;;;;8.07;2.20;;;;;;;;;;5056105;28;20036;-67
2023/07/30 12:57:27;;;;;;;15.13;2.28;;;;;;;;;;5055727;28;20102;-68
2023/07/30 12:59:53;;;;;;;7.88;1.45;;;;;;;;;;5056882;28;20037;-67
2023/07/30 13:02:19;;;;;;;6.35;1.38;;;;;;;;;;5056393;28;20032;-68
2023/07/30 13:04:45;;;;;;;3.72;0.90;;;;;;;;;;5056893;28;20067;-67
2023/07/30 13:07:12;;;;;;;6.35;1.25;;;;;;;;;;5057170;28;20043;-67
2023/07/30 13:09:38;;;;;;;8.07;1.75;;;;;;;;;;5056292;28;20040;-67
2023/07/30 13:12:04;;;;;;;7.32;1.58;;;;;;;;;;5055515;28;20799;-67
2023/07/30 13:14:30;;;;;;;5.93;1.33;;;;;;;;;;5056076;28;20020;-68
2023/07/30 13:16:56;;;;;;;7.25;1.65;;;;;;;;;;5054674;28;20036;-67
2023/07/30 13:19:22;;;;;;;12.25;1.65;;;;;;;;;;5056311;28;20420;-68
2023/07/30 13:21:48;;;;;;;7.30;1.58;;;;;;;;;;5057087;28;20032;-68
2023/07/30 13:24:14;;;;;;;9.52;1.52;;;;;;;;;;5056038;28;20036;-68
2023/07/30 13:26:40;;;;;;;5.65;1.25;;;;;;;;;;5055824;28;20044;-67
2023/07/30 13:29:06;;;;;;;9.57;1.90;;;;;;;;;;5055867;28;20194;-67
2023/07/30 13:31:32;;;;;;;12.10;1.90;;;;;;;;;;5056890;28;20036;-68
2023/07/30 13:33:58;;;;;;;10.00;1.98;;;;;;;;;;5055937;28;20119;-68
2023/07/30 13:36:24;;;;;;;5.18;1.60;;;;;;;;;;5054398;28;20055;-68
2023/07/30 13:38:50;;;;;;;10.07;1.52;;;;;;;;;;5057634;28;20060;-67
2023/07/30 13:41:16;;;;;;;6.72;1.92;;;;;;;;;;5060271;28;20127;-67
2023/07/30 13:43:42;;;;;;;6.30;1.55;;;;;;;;;;5060558;28;20071;-68
2023/07/30 13:46:08;;;;;;;6.93;1.60;;;;;;;;;;5060425;28;20071;-67
2023/07/30 13:48:34;;;;;;;8.32;1.63;;;;;;;;;;5058930;28;20486;-67
2023/07/30 13:51:03;;;;;;;8.27;1.85;;;;;;;;;;5058944;28;20479;-67
2023/07/30 13:53:29;;;;;;;6.05;1.60;;;;;;;;;;5059096;28;20044;-67
2023/07/30 13:55:55;;;;;;;13.20;2.17;;;;;;;;;;5060739;28;20043;-67
2023/07/30 13:58:21;;;;;;;6.30;1.35;;;;;;;;;;5059109;28;20045;-67
2023/07/30 14:00:47;;;;;;;5.45;1.42;;;;;;;;;;5059568;28;20044;-67
2023/07/30 14:03:13;;;;;;;7.82;1.50;;;;;;;;;;5057588;28;20783;-67
2023/07/30 14:05:39;;;;;;;6.80;1.27;;;;;;;;;;5060255;28;20056;-67
2023/07/30 14:08:05;;;;;;;6.85;1.60;;;;;;;;;;5059835;28;20064;-67
2023/07/30 14:10:31;;;;;;;8.13;1.40;;;;;;;;;;5060055;28;20066;-67
2023/07/30 14:12:57;;;;;;;8.38;1.65;;;;;;;;;;5059001;28;20608;-67
2023/07/30 14:15:23;;;;;;;7.18;1.65;;;;;;;;;;5059690;28;20572;-67
2023/07/30 14:17:51;;;;;;;8.32;1.80;;;;;;;;;;5060059;28;20409;-67
2023/07/30 14:20:17;;;;;;;6.53;1.35;;;;;;;;;;5059067;28;20495;-67
2023/07/30 14:22:43;;;;;;;6.95;1.23;;;;;;;;;;5059453;28;20110;-67
2023/07/30 14:25:09;;;;;;;6.88;1.35;;;;;;;;;;5060073;28;20016;-67
2023/07/30 14:27:35;;;;;;;9.80;1.80;;;;;;;;;;5060097;28;20028;-67
2023/07/30 14:30:02;;;;;;;8.30;1.85;;;;;;;;;;5060024;28;20070;-67